createdAt,value
2018-08-20T00:01:34.099Z,16.00
2018-08-20T00:04:03.923Z,15.90
2018-08-20T00:06:44.440Z,15.90
2018-08-20T00:09:12.890Z,15.90
2018-08-20T00:11:41.329Z,15.90
2018-08-20T00:14:09.759Z,15.90
2018-08-20T00:16:38.240Z,15.90
2018-08-20T00:19:06.720Z,15.80
2018-08-20T00:21:35.157Z,15.90
2018-08-20T00:24:03.601Z,15.80
2018-08-20T00:26:32.065Z,15.80
2018-08-20T00:29:00.548Z,15.70
2018-08-20T00:31:28.999Z,15.70
2018-08-20T00:33:57.437Z,15.70
2018-08-20T00:36:25.882Z,15.70
2018-08-20T00:38:54.301Z,15.70
2018-08-20T00:41:22.742Z,15.70
2018-08-20T00:43:51.195Z,15.60
2018-08-20T00:46:19.619Z,15.60
2018-08-20T00:48:48.136Z,15.60
2018-08-20T00:51:16.562Z,15.50
2018-08-20T00:53:45.017Z,15.50
2018-08-20T00:56:13.433Z,15.40
2018-08-20T00:58:41.881Z,15.30
2018-08-20T01:01:10.278Z,15.30
2018-08-20T01:03:38.750Z,15.40
2018-08-20T01:06:07.210Z,15.40
2018-08-20T01:08:35.673Z,15.40
2018-08-20T01:11:04.158Z,15.40
2018-08-20T01:13:32.614Z,15.30
2018-08-20T01:16:01.042Z,15.30
2018-08-20T01:18:29.606Z,15.20
2018-08-20T01:20:58.058Z,15.20
2018-08-20T01:23:26.516Z,15.20
2018-08-20T01:25:54.950Z,15.10
2018-08-20T01:28:23.429Z,15.10
2018-08-20T01:30:51.869Z,15.10
2018-08-20T01:33:20.400Z,15.10
2018-08-20T01:35:48.837Z,15.00
2018-08-20T01:38:17.277Z,15.10
2018-08-20T01:40:45.702Z,15.10
2018-08-20T01:43:14.158Z,15.10
2018-08-20T01:45:42.653Z,15.10
2018-08-20T01:48:11.126Z,15.10
2018-08-20T01:50:39.577Z,15.10
2018-08-20T01:53:08.031Z,15.10
2018-08-20T01:55:36.467Z,15.10
2018-08-20T01:58:04.933Z,15.00
2018-08-20T02:00:33.447Z,15.00
2018-08-20T02:03:02.791Z,15.00
2018-08-20T02:05:31.330Z,14.90
2018-08-20T02:07:59.890Z,14.90
2018-08-20T02:10:28.413Z,14.90
2018-08-20T02:12:56.947Z,14.80
2018-08-20T02:15:25.764Z,14.80
2018-08-20T02:17:54.668Z,14.80
2018-08-20T02:20:23.109Z,14.80
2018-08-20T02:22:51.590Z,14.80
2018-08-20T02:25:20.021Z,14.80
2018-08-20T02:27:48.505Z,14.70
2018-08-20T02:30:16.970Z,14.70
2018-08-20T02:32:45.450Z,14.60
2018-08-20T02:35:13.901Z,14.60
2018-08-20T02:37:44.984Z,14.60
2018-08-20T02:40:13.599Z,14.60
2018-08-20T02:42:42.078Z,14.60
2018-08-20T02:45:13.470Z,14.50
2018-08-20T02:47:42.695Z,14.60
2018-08-20T02:50:11.808Z,14.50
2018-08-20T02:52:40.688Z,14.60
2018-08-20T02:55:09.186Z,14.60
2018-08-20T02:57:37.987Z,14.50
2018-08-20T03:00:08.365Z,14.50
2018-08-20T03:02:36.950Z,14.60
2018-08-20T03:05:05.775Z,14.50
2018-08-20T03:07:34.405Z,14.50
2018-08-20T03:10:02.973Z,14.50
2018-08-20T03:12:31.424Z,14.40
2018-08-20T03:14:59.902Z,14.40
2018-08-20T03:17:28.393Z,14.40
2018-08-20T03:19:56.854Z,14.40
2018-08-20T03:22:25.295Z,14.40
2018-08-20T03:24:53.753Z,14.40
2018-08-20T03:27:22.238Z,14.30
2018-08-20T03:29:50.679Z,14.30
2018-08-20T03:32:19.113Z,14.40
2018-08-20T03:34:47.578Z,14.30
2018-08-20T03:37:16.074Z,14.30
2018-08-20T03:39:44.535Z,14.20
2018-08-20T03:42:12.969Z,14.30
2018-08-20T03:44:41.422Z,14.30
2018-08-20T03:47:09.854Z,14.20
2018-08-20T03:49:38.307Z,14.20
2018-08-20T03:52:06.866Z,14.20
2018-08-20T03:54:35.346Z,14.20
2018-08-20T03:57:03.845Z,14.20
2018-08-20T03:59:34.470Z,14.10
2018-08-20T04:02:04.146Z,14.10
2018-08-20T04:04:32.818Z,14.10
2018-08-20T04:07:05.298Z,14.00
2018-08-20T04:09:34.326Z,14.00
2018-08-20T04:12:03.603Z,14.00
2018-08-20T04:14:32.049Z,13.90
2018-08-20T04:17:00.639Z,14.00
2018-08-20T04:19:29.674Z,14.00
2018-08-20T04:21:58.290Z,14.00
2018-08-20T04:24:26.799Z,14.00
2018-08-20T04:26:55.242Z,14.00
2018-08-20T04:29:23.709Z,13.90
2018-08-20T04:31:52.153Z,14.00
2018-08-20T04:34:20.642Z,13.90
2018-08-20T04:36:49.079Z,14.00
2018-08-20T04:39:17.551Z,14.00
2018-08-20T04:41:45.987Z,14.00
2018-08-20T04:44:14.442Z,14.00
2018-08-20T04:46:42.934Z,14.00
2018-08-20T04:49:11.348Z,14.00
2018-08-20T04:51:39.782Z,14.10
2018-08-20T04:54:08.240Z,14.10
2018-08-20T04:56:36.690Z,14.20
2018-08-20T04:59:05.178Z,14.20
2018-08-20T05:01:33.617Z,14.20
2018-08-20T05:04:02.111Z,14.30
2018-08-20T05:06:30.534Z,14.30
2018-08-20T05:08:58.967Z,14.40
2018-08-20T05:11:27.427Z,14.40
2018-08-20T05:13:55.850Z,14.50
2018-08-20T05:16:24.321Z,14.60
2018-08-20T05:18:52.843Z,14.70
2018-08-20T05:21:21.286Z,14.70
2018-08-20T05:23:49.723Z,14.80
2018-08-20T05:26:18.781Z,14.90
2018-08-20T05:28:47.218Z,15.00
2018-08-20T05:31:15.687Z,15.10
2018-08-20T05:33:44.112Z,15.20
2018-08-20T05:36:12.584Z,15.30
2018-08-20T05:38:41.014Z,15.30
2018-08-20T05:41:09.506Z,15.40
2018-08-20T05:43:37.943Z,15.60
2018-08-20T05:46:06.630Z,15.70
2018-08-20T05:48:35.086Z,15.80
2018-08-20T05:51:03.599Z,15.80
2018-08-20T05:53:32.031Z,15.90
2018-08-20T05:56:00.493Z,16.00
2018-08-20T05:58:29.014Z,16.10
2018-08-20T06:00:57.509Z,16.30
2018-08-20T06:03:25.960Z,16.40
2018-08-20T06:05:54.446Z,16.50
2018-08-20T06:08:22.918Z,16.60
2018-08-20T06:10:51.400Z,16.60
2018-08-20T06:13:19.885Z,16.70
2018-08-20T06:15:48.395Z,16.80
2018-08-20T06:18:16.878Z,17.00
2018-08-20T06:20:45.373Z,17.10
2018-08-20T06:23:13.838Z,17.20
2018-08-20T06:25:42.330Z,17.20
2018-08-20T06:28:10.797Z,17.30
2018-08-20T06:30:39.285Z,17.40
2018-08-20T06:33:07.783Z,17.50
2018-08-20T06:35:36.262Z,17.70
2018-08-20T06:38:04.794Z,17.80
2018-08-20T06:40:33.321Z,17.90
2018-08-20T06:43:01.805Z,18.00
2018-08-20T06:45:30.289Z,18.10
2018-08-20T06:47:58.775Z,18.20
2018-08-20T06:50:27.224Z,18.40
2018-08-20T06:52:55.744Z,18.50
2018-08-20T06:55:24.205Z,18.60
2018-08-20T06:57:52.681Z,18.80
2018-08-20T07:00:21.220Z,18.90
2018-08-20T07:02:49.692Z,19.00
2018-08-20T07:05:18.202Z,18.90
2018-08-20T07:07:46.666Z,19.00
2018-08-20T07:10:15.098Z,19.20
2018-08-20T07:12:43.652Z,19.40
2018-08-20T07:15:13.889Z,19.60
2018-08-20T07:17:42.370Z,19.80
2018-08-20T07:20:12.402Z,20.00
2018-08-20T07:22:41.022Z,19.90
2018-08-20T07:25:09.831Z,20.20
2018-08-20T07:27:38.709Z,20.40
2018-08-20T07:30:09.821Z,20.60
2018-08-20T07:32:38.331Z,20.50
2018-08-20T07:35:06.985Z,20.50
2018-08-20T07:37:35.465Z,20.80
2018-08-20T07:40:04.856Z,20.70
2018-08-20T07:42:33.412Z,20.80
2018-08-20T07:45:01.823Z,20.70
2018-08-20T07:47:30.291Z,20.90
2018-08-20T07:49:58.758Z,21.10
2018-08-20T07:52:27.241Z,21.00
2018-08-20T07:54:55.723Z,21.20
2018-08-20T07:57:24.219Z,21.30
2018-08-20T07:59:52.679Z,21.30
2018-08-20T08:02:21.146Z,21.40
2018-08-20T08:04:49.629Z,21.60
2018-08-20T08:07:18.115Z,21.80
2018-08-20T08:09:46.580Z,22.00
2018-08-20T08:12:15.101Z,22.20
2018-08-20T08:14:43.548Z,22.60
2018-08-20T08:17:12.014Z,23.20
2018-08-20T08:19:40.523Z,23.50
2018-08-20T08:22:09.027Z,23.30
2018-08-20T08:24:37.524Z,23.00
2018-08-20T08:27:06.433Z,22.70
2018-08-20T08:29:34.894Z,22.80
2018-08-20T08:32:03.458Z,23.00
2018-08-20T08:34:31.962Z,23.00
2018-08-20T08:37:00.457Z,23.30
2018-08-20T08:39:28.923Z,23.40
2018-08-20T08:41:57.399Z,23.00
2018-08-20T08:44:25.843Z,22.80
2018-08-20T08:46:54.359Z,22.80
2018-08-20T08:49:22.830Z,22.90
2018-08-20T08:51:51.360Z,23.40
2018-08-20T08:54:19.807Z,23.30
2018-08-20T08:56:48.291Z,23.70
2018-08-20T08:59:16.779Z,23.70
2018-08-20T09:01:45.229Z,23.70
2018-08-20T09:04:13.685Z,23.90
2018-08-20T09:06:42.118Z,24.20
2018-08-20T09:09:10.613Z,24.40
2018-08-20T09:11:39.082Z,25.20
2018-08-20T09:14:07.626Z,25.40
2018-08-20T09:16:36.066Z,25.40
2018-08-20T09:19:04.730Z,25.80
2018-08-20T09:21:33.217Z,25.20
2018-08-20T09:24:01.685Z,25.00
2018-08-20T09:26:30.123Z,25.20
2018-08-20T09:28:58.566Z,25.60
2018-08-20T09:31:27.030Z,25.90
2018-08-20T09:33:55.486Z,25.80
2018-08-20T09:36:23.966Z,25.70
2018-08-20T09:38:52.794Z,25.90
2018-08-20T09:41:21.307Z,25.90
2018-08-20T09:43:49.808Z,26.30
2018-08-20T09:46:18.246Z,26.20
2018-08-20T09:48:46.709Z,26.20
2018-08-20T09:51:15.180Z,26.00
2018-08-20T09:53:43.638Z,25.80
2018-08-20T09:56:12.105Z,25.60
2018-08-20T09:58:40.582Z,25.70
2018-08-20T10:01:09.046Z,25.40
2018-08-20T10:03:37.550Z,25.90
2018-08-20T10:06:05.995Z,26.00
2018-08-20T10:08:34.459Z,25.90
2018-08-20T10:11:02.907Z,26.00
2018-08-20T10:13:31.362Z,26.20
2018-08-20T10:15:59.786Z,25.80
2018-08-20T10:18:28.322Z,25.90
2018-08-20T10:20:56.724Z,25.90
2018-08-20T10:23:25.189Z,25.80
2018-08-20T10:25:53.638Z,26.20
2018-08-20T10:28:22.098Z,26.50
2018-08-20T10:30:50.551Z,26.70
2018-08-20T10:33:19.002Z,26.80
2018-08-20T10:35:47.467Z,26.30
2018-08-20T10:38:15.942Z,26.40
2018-08-20T10:40:44.366Z,26.60
2018-08-20T10:43:12.834Z,26.30
2018-08-20T10:45:46.690Z,26.40
2018-08-20T10:48:15.178Z,26.50
2018-08-20T10:50:43.605Z,26.40
2018-08-20T10:53:12.070Z,26.20
2018-08-20T10:55:40.513Z,26.50
2018-08-20T10:58:08.986Z,27.20
2018-08-20T11:00:37.451Z,28.70
2018-08-20T11:03:06.269Z,29.70
2018-08-20T11:05:34.711Z,29.50
2018-08-20T11:08:03.185Z,29.10
2018-08-20T11:10:31.637Z,28.50
2018-08-20T11:13:00.174Z,28.60
2018-08-20T11:15:28.614Z,28.30
2018-08-20T11:17:57.072Z,29.10
2018-08-20T11:20:25.511Z,29.40
2018-08-20T11:22:53.938Z,28.10
2018-08-20T11:25:22.410Z,27.70
2018-08-20T11:27:50.863Z,27.80
2018-08-20T11:30:19.357Z,28.20
2018-08-20T11:32:47.819Z,27.70
2018-08-20T11:35:16.299Z,27.00
2018-08-20T11:37:44.776Z,27.20
2018-08-20T11:40:13.303Z,28.10
2018-08-20T11:42:41.735Z,28.20
2018-08-20T11:45:12.486Z,27.70
2018-08-20T11:47:40.914Z,28.30
2018-08-20T11:50:09.830Z,29.20
2018-08-20T11:52:39.006Z,29.10
2018-08-20T11:55:07.651Z,29.60
2018-08-20T11:57:36.207Z,29.30
2018-08-20T12:00:06.690Z,29.30
2018-08-20T12:02:35.174Z,28.80
2018-08-20T12:05:03.681Z,28.20
2018-08-20T12:07:32.145Z,28.00
2018-08-20T12:10:00.585Z,27.90
2018-08-20T12:12:29.014Z,27.40
2018-08-20T12:14:57.469Z,27.30
2018-08-20T12:17:25.903Z,27.40
2018-08-20T12:19:54.353Z,27.60
2018-08-20T12:22:22.886Z,27.70
2018-08-20T12:24:51.306Z,28.10
2018-08-20T12:27:19.729Z,27.90
2018-08-20T12:29:48.207Z,27.60
2018-08-20T12:32:16.647Z,27.60
2018-08-20T12:34:45.115Z,27.60
2018-08-20T12:37:13.546Z,27.30
2018-08-20T12:39:42.061Z,27.00
2018-08-20T12:42:10.504Z,26.80
2018-08-20T12:44:38.955Z,27.70
2018-08-20T12:47:07.430Z,29.30
2018-08-20T12:49:35.886Z,29.70
2018-08-20T12:52:04.358Z,30.60
2018-08-20T12:54:32.807Z,31.10
2018-08-20T12:57:01.238Z,30.10
2018-08-20T12:59:29.730Z,28.90
2018-08-20T13:01:58.206Z,29.70
2018-08-20T13:04:26.707Z,31.20
2018-08-20T13:06:55.133Z,32.40
2018-08-20T13:09:23.612Z,32.50
2018-08-20T13:11:52.046Z,31.10
2018-08-20T13:14:20.550Z,31.30
2018-08-20T13:16:49.011Z,31.50
2018-08-20T13:19:17.508Z,31.50
2018-08-20T13:21:45.978Z,32.40
2018-08-20T13:24:14.458Z,32.00
2018-08-20T13:26:42.907Z,32.60
2018-08-20T13:29:11.427Z,32.40
2018-08-20T13:31:39.901Z,32.70
2018-08-20T13:34:08.440Z,34.20
2018-08-20T13:36:37.017Z,34.30
2018-08-20T13:39:06.993Z,34.50
2018-08-20T13:41:35.567Z,34.50
2018-08-20T13:44:04.166Z,36.20
2018-08-20T13:46:32.631Z,35.20
2018-08-20T13:49:01.220Z,34.60
2018-08-20T13:51:29.681Z,33.50
2018-08-20T13:53:58.166Z,34.00
2018-08-20T13:56:26.637Z,34.30
2018-08-20T13:58:55.156Z,33.20
2018-08-20T14:01:23.645Z,33.70
2018-08-20T14:03:52.522Z,33.40
2018-08-20T14:06:21.003Z,35.20
2018-08-20T14:08:49.454Z,34.90
2018-08-20T14:11:17.922Z,31.90
2018-08-20T14:13:46.382Z,31.20
2018-08-20T14:16:14.889Z,30.50
2018-08-20T14:18:43.333Z,30.40
2018-08-20T14:21:13.050Z,30.30
2018-08-20T14:23:43.174Z,30.10
2018-08-20T14:26:11.641Z,29.40
2018-08-20T14:28:40.127Z,28.80
2018-08-20T14:31:08.775Z,29.50
2018-08-20T14:33:37.343Z,29.50
2018-08-20T14:36:05.989Z,29.40
2018-08-20T14:38:34.770Z,29.30
2018-08-20T14:41:03.441Z,29.20
2018-08-20T14:43:31.926Z,28.70
2018-08-20T14:46:05.803Z,28.70
2018-08-20T14:48:34.260Z,28.50
2018-08-20T14:51:02.782Z,28.20
2018-08-20T14:53:31.333Z,27.90
2018-08-20T14:55:59.758Z,27.80
2018-08-20T14:58:28.237Z,27.90
2018-08-20T15:00:56.769Z,27.90
2018-08-20T15:03:25.231Z,27.90
2018-08-20T15:05:53.694Z,28.10
2018-08-20T15:08:22.139Z,28.30
2018-08-20T15:10:50.640Z,28.40
2018-08-20T15:13:19.099Z,28.60
2018-08-20T15:15:47.714Z,28.50
2018-08-20T15:18:16.018Z,28.50
2018-08-20T15:20:44.474Z,28.00
2018-08-20T15:23:12.930Z,28.10
2018-08-20T15:25:41.397Z,29.40
2018-08-20T15:28:09.881Z,31.10
2018-08-20T15:30:38.322Z,30.00
2018-08-20T15:33:06.774Z,29.00
2018-08-20T15:35:35.210Z,28.50
2018-08-20T15:38:03.686Z,28.30
2018-08-20T15:40:32.132Z,28.40
2018-08-20T15:43:00.618Z,28.40
2018-08-20T15:45:29.078Z,27.90
2018-08-20T15:47:57.551Z,27.90
2018-08-20T15:50:26.005Z,27.60
2018-08-20T15:52:54.546Z,27.40
2018-08-20T15:55:22.986Z,27.40
2018-08-20T15:57:51.475Z,27.20
2018-08-20T16:00:19.970Z,27.10
2018-08-20T16:02:48.497Z,27.10
2018-08-20T16:05:16.958Z,27.10
2018-08-20T16:07:45.455Z,27.10
2018-08-20T16:10:13.918Z,27.00
2018-08-20T16:12:42.394Z,27.00
2018-08-20T16:15:11.006Z,26.90
2018-08-20T16:17:39.506Z,26.60
2018-08-20T16:20:08.182Z,26.70
2018-08-20T16:22:37.022Z,26.70
2018-08-20T16:25:06.554Z,26.60
2018-08-20T16:27:35.038Z,26.40
2018-08-20T16:30:04.390Z,26.40
2018-08-20T16:32:32.860Z,26.40
2018-08-20T16:35:01.294Z,26.30
2018-08-20T16:37:29.765Z,26.20
2018-08-20T16:39:58.214Z,26.00
2018-08-20T16:42:26.704Z,26.00
2018-08-20T16:44:55.153Z,25.90
2018-08-20T16:47:23.658Z,25.90
2018-08-20T16:49:52.268Z,25.90
2018-08-20T16:52:20.755Z,25.90
2018-08-20T16:54:49.186Z,25.80
2018-08-20T16:57:17.708Z,25.80
2018-08-20T16:59:46.186Z,25.60
2018-08-20T17:02:19.036Z,25.70
2018-08-20T17:04:47.481Z,25.70
2018-08-20T17:07:15.957Z,25.70
2018-08-20T17:09:44.394Z,25.70
2018-08-20T17:12:12.862Z,25.60
2018-08-20T17:14:41.294Z,25.50
2018-08-20T17:17:09.766Z,25.40
2018-08-20T17:19:38.197Z,25.30
2018-08-20T17:22:06.870Z,25.30
2018-08-20T17:24:38.289Z,25.20
2018-08-20T17:27:06.847Z,25.10
2018-08-20T17:29:35.343Z,24.90
2018-08-20T17:32:05.310Z,24.80
2018-08-20T17:34:34.008Z,24.80
2018-08-20T17:37:02.711Z,24.60
2018-08-20T17:39:31.163Z,24.60
2018-08-20T17:41:59.666Z,24.50
2018-08-20T17:44:28.142Z,24.40
2018-08-20T17:46:56.566Z,24.30
2018-08-20T17:49:28.945Z,24.20
2018-08-20T17:51:57.378Z,24.20
2018-08-20T17:54:28.498Z,24.10
2018-08-20T17:56:57.081Z,24.00
2018-08-20T17:59:25.558Z,23.90
2018-08-20T18:01:53.994Z,23.80
2018-08-20T18:04:22.458Z,23.70
2018-08-20T18:06:55.797Z,23.70
2018-08-20T18:09:24.267Z,23.50
2018-08-20T18:11:54.809Z,23.40
2018-08-20T18:14:24.533Z,23.40
2018-08-20T18:16:52.970Z,23.30
2018-08-20T18:19:21.450Z,23.20
2018-08-20T18:21:49.966Z,23.20
2018-08-20T18:24:20.809Z,23.00
2018-08-20T18:26:52.872Z,23.00
2018-08-20T18:29:21.433Z,22.80
2018-08-20T18:31:52.472Z,22.70
2018-08-20T18:34:21.146Z,22.70
2018-08-20T18:36:49.614Z,22.60
2018-08-20T18:39:18.121Z,22.50
2018-08-20T18:42:03.237Z,22.50
2018-08-20T18:44:31.737Z,22.30
2018-08-20T18:47:00.250Z,22.20
2018-08-20T18:49:28.771Z,22.10
2018-08-20T18:52:10.874Z,22.00
2018-08-20T18:54:41.697Z,21.90
2018-08-20T18:57:10.211Z,21.90
2018-08-20T18:59:39.790Z,22.10
2018-08-20T19:02:10.690Z,22.10
2018-08-20T19:04:49.221Z,22.10
2018-08-20T19:07:17.686Z,22.10
2018-08-20T19:09:48.323Z,22.10
2018-08-20T19:12:16.836Z,22.10
2018-08-20T19:14:45.380Z,22.20
2018-08-20T19:17:18.066Z,22.30
2018-08-20T19:19:48.322Z,22.20
2018-08-20T19:22:22.227Z,22.20
2018-08-20T19:24:50.769Z,22.10
2018-08-20T19:27:19.257Z,21.90
2018-08-20T19:29:47.754Z,21.70
2018-08-20T19:32:16.222Z,21.40
2018-08-20T19:34:44.690Z,21.20
2018-08-20T19:37:13.158Z,21.10
2018-08-20T19:39:41.597Z,21.00
2018-08-20T19:42:11.482Z,20.90
2018-08-20T19:44:39.985Z,20.90
2018-08-20T19:47:08.435Z,20.80
2018-08-20T19:49:36.870Z,20.80
2018-08-20T19:52:05.338Z,20.80
2018-08-20T19:54:33.764Z,20.80
2018-08-20T19:57:02.209Z,20.80
2018-08-20T19:59:36.073Z,20.90
2018-08-20T20:02:05.077Z,20.90
2018-08-20T20:04:33.561Z,20.90
2018-08-20T20:07:02.038Z,21.00
2018-08-20T20:09:30.516Z,21.00
2018-08-20T20:11:58.996Z,21.00
2018-08-20T20:14:32.516Z,21.00
2018-08-20T20:17:00.975Z,21.00
2018-08-20T20:19:29.451Z,21.00
2018-08-20T20:21:57.950Z,20.90
2018-08-20T20:24:26.378Z,20.80
2018-08-20T20:26:54.860Z,20.80
2018-08-20T20:29:23.330Z,20.70
2018-08-20T20:31:51.829Z,20.60
2018-08-20T20:34:20.290Z,20.70
2018-08-20T20:36:48.774Z,20.60
2018-08-20T20:39:17.234Z,20.50
2018-08-20T20:41:45.706Z,20.50
2018-08-20T20:44:14.205Z,20.40
2018-08-20T20:46:42.733Z,20.40
2018-08-20T20:49:11.206Z,20.40
2018-08-20T20:51:39.726Z,20.40
2018-08-20T20:54:08.242Z,20.50
2018-08-20T20:56:36.730Z,20.40
2018-08-20T20:59:05.261Z,20.30
2018-08-20T21:01:33.750Z,20.40
2018-08-20T21:04:04.029Z,20.40
2018-08-20T21:06:33.790Z,20.30
2018-08-20T21:09:02.239Z,20.30
2018-08-20T21:11:30.695Z,20.30
2018-08-20T21:13:59.157Z,20.30
2018-08-20T21:16:27.614Z,20.30
2018-08-20T21:18:57.641Z,20.20
2018-08-20T21:21:26.881Z,20.10
2018-08-20T21:23:56.721Z,19.90
2018-08-20T21:26:25.201Z,19.90
2018-08-20T21:28:54.371Z,19.80
2018-08-20T21:31:24.069Z,19.70
2018-08-20T21:33:59.853Z,19.70
2018-08-20T21:36:28.351Z,19.70
2018-08-20T21:38:56.885Z,19.70
2018-08-20T21:41:26.890Z,19.70
2018-08-20T21:43:55.393Z,19.60
2018-08-20T21:46:23.866Z,19.60
2018-08-20T21:48:52.379Z,19.50
2018-08-20T21:51:27.342Z,19.50
2018-08-20T21:53:55.880Z,19.50
2018-08-20T21:56:24.543Z,19.50
2018-08-20T21:58:53.013Z,19.50
2018-08-20T22:01:21.578Z,19.60
2018-08-20T22:03:50.009Z,19.60
2018-08-20T22:06:18.481Z,19.60
2018-08-20T22:08:46.953Z,19.70
2018-08-20T22:11:15.421Z,19.80
2018-08-20T22:13:43.894Z,19.90
2018-08-20T22:16:18.730Z,19.90
2018-08-20T22:18:51.702Z,19.90
2018-08-20T22:21:20.140Z,19.90
2018-08-20T22:23:48.614Z,19.90
2018-08-20T22:26:18.803Z,19.90
2018-08-20T22:28:49.564Z,19.90
2018-08-20T22:31:18.250Z,19.80
2018-08-20T22:33:52.962Z,19.80
2018-08-20T22:36:21.413Z,19.80
2018-08-20T22:38:52.391Z,19.90
2018-08-20T22:41:21.762Z,19.90
2018-08-20T22:43:50.387Z,19.90
2018-08-20T22:46:19.749Z,19.90
2018-08-20T22:48:50.753Z,19.80
2018-08-20T22:51:19.888Z,19.80
2018-08-20T22:53:49.742Z,19.80
2018-08-20T22:56:35.910Z,19.80
2018-08-20T22:59:08.896Z,19.70
2018-08-20T23:01:37.355Z,19.70
2018-08-20T23:04:06.070Z,19.60
2018-08-20T23:06:34.591Z,19.60
2018-08-20T23:09:35.038Z,19.60
2018-08-20T23:12:03.530Z,19.60
2018-08-20T23:14:33.754Z,19.50
2018-08-20T23:17:02.238Z,19.50
2018-08-20T23:19:30.848Z,19.40
2018-08-20T23:21:59.301Z,19.40
2018-08-20T23:24:27.749Z,19.30
2018-08-20T23:26:56.207Z,19.30
2018-08-20T23:29:24.665Z,19.30
2018-08-20T23:31:53.101Z,19.20
2018-08-20T23:34:21.568Z,19.20
2018-08-20T23:36:50.023Z,19.10
2018-08-20T23:39:18.486Z,19.10
2018-08-20T23:41:46.914Z,19.00
2018-08-20T23:44:16.882Z,19.00
2018-08-20T23:46:46.865Z,19.00
2018-08-20T23:49:15.398Z,19.00
2018-08-20T23:51:43.893Z,19.00
2018-08-20T23:54:12.745Z,19.00
2018-08-20T23:56:41.201Z,19.00
2018-08-20T23:59:09.749Z,19.00
